Terminal Aerodrome Forecast
Issued by NWS

Home | Current Version | Previous Version | Text Only | Print | Product List | Glossary On
Versions: 1 2 3 4 5 6 7 8 9 10 11 12
000
FTUS45 KREV 270529
TAFCXP
TAF
KCXP 270529Z 2706/2806 21007KT P6SM -SHRA SCT030 BKN040 OVC100
     FM271200 25010G16KT P6SM BKN050 BKN100
     FM271900 29012G20KT P6SM VCSH SCT035 BKN050 BKN080
     FM280400 33005KT P6SM SCT060 BKN090=

USA.gov is the U.S. government's official web portal to all federal, state and local government web resources and services.